sensor_id;sensor_type;location;lat;lon;timestamp;temperature;humidity
5128;DHT22;2582;48.770;9.190;2023-06-14T00:02:03;18.80;62.80
5128;DHT22;2582;48.770;9.190;2023-06-14T00:04:28;18.80;62.70
5128;DHT22;2582;48.770;9.190;2023-06-14T00:06:55;18.70;63.70
5128;DHT22;2582;48.770;9.190;2023-06-14T00:09:22;18.60;64.30
5128;DHT22;2582;48.770;9.190;2023-06-14T00:11:47;18.50;64.70
5128;DHT22;2582;48.770;9.190;2023-06-14T00:14:13;18.40;65.10
5128;DHT22;2582;48.770;9.190;2023-06-14T00:16:40;18.30;65.50
5128;DHT22;2582;48.770;9.190;2023-06-14T00:19:08;18.40;65.80
5128;DHT22;2582;48.770;9.190;2023-06-14T00:21:35;18.40;65.70
5128;DHT22;2582;48.770;9.190;2023-06-14T00:24:02;18.40;65.80
5128;DHT22;2582;48.770;9.190;2023-06-14T00:26:27;18.40;66.00
5128;DHT22;2582;48.770;9.190;2023-06-14T00:28:54;18.40;66.40
5128;DHT22;2582;48.770;9.190;2023-06-14T00:31:20;18.30;66.60
5128;DHT22;2582;48.770;9.190;2023-06-14T00:33:46;18.30;66.60
5128;DHT22;2582;48.770;9.190;2023-06-14T00:36:12;18.20;66.40
5128;DHT22;2582;48.770;9.190;2023-06-14T00:38:37;18.10;66.90
5128;DHT22;2582;48.770;9.190;2023-06-14T00:41:03;18.10;67.70
5128;DHT22;2582;48.770;9.190;2023-06-14T00:43:29;18.10;67.80
5128;DHT22;2582;48.770;9.190;2023-06-14T00:45:54;17.90;67.80
5128;DHT22;2582;48.770;9.190;2023-06-14T00:48:20;17.90;68.00
5128;DHT22;2582;48.770;9.190;2023-06-14T00:50:46;18.00;67.70
5128;DHT22;2582;48.770;9.190;2023-06-14T00:53:14;18.00;66.80
5128;DHT22;2582;48.770;9.190;2023-06-14T00:55:43;17.90;67.70
5128;DHT22;2582;48.770;9.190;2023-06-14T00:58:09;17.80;67.60
5128;DHT22;2582;48.770;9.190;2023-06-14T01:00:36;17.90;68.50
5128;DHT22;2582;48.770;9.190;2023-06-14T01:03:01;17.80;68.40
5128;DHT22;2582;48.770;9.190;2023-06-14T01:05:28;17.80;68.70
5128;DHT22;2582;48.770;9.190;2023-06-14T01:08:05;17.80;69.00
5128;DHT22;2582;48.770;9.190;2023-06-14T01:13:54;17.70;69.50
5128;DHT22;2582;48.770;9.190;2023-06-14T01:16:02;17.70;69.40
5128;DHT22;2582;48.770;9.190;2023-06-14T01:18:28;17.60;69.80
5128;DHT22;2582;48.770;9.190;2023-06-14T01:20:55;17.50;70.10
5128;DHT22;2582;48.770;9.190;2023-06-14T01:23:22;17.40;70.00
5128;DHT22;2582;48.770;9.190;2023-06-14T01:25:49;17.40;70.30
5128;DHT22;2582;48.770;9.190;2023-06-14T01:28:19;17.30;69.90
5128;DHT22;2582;48.770;9.190;2023-06-14T01:30:50;17.20;70.20
5128;DHT22;2582;48.770;9.190;2023-06-14T01:33:26;17.20;70.30
5128;DHT22;2582;48.770;9.190;2023-06-14T01:35:53;17.20;70.40
5128;DHT22;2582;48.770;9.190;2023-06-14T01:38:22;17.30;70.50
5128;DHT22;2582;48.770;9.190;2023-06-14T01:40:49;17.30;70.50
5128;DHT22;2582;48.770;9.190;2023-06-14T01:43:16;17.30;70.70
5128;DHT22;2582;48.770;9.190;2023-06-14T01:45:45;17.20;71.10
5128;DHT22;2582;48.770;9.190;2023-06-14T01:48:11;17.20;71.00
5128;DHT22;2582;48.770;9.190;2023-06-14T01:50:37;17.10;71.40
5128;DHT22;2582;48.770;9.190;2023-06-14T01:53:03;16.90;71.80
5128;DHT22;2582;48.770;9.190;2023-06-14T01:55:29;16.90;72.50
5128;DHT22;2582;48.770;9.190;2023-06-14T01:57:54;16.90;72.90
5128;DHT22;2582;48.770;9.190;2023-06-14T02:00:20;17.00;72.90
5128;DHT22;2582;48.770;9.190;2023-06-14T02:02:47;16.90;73.30
5128;DHT22;2582;48.770;9.190;2023-06-14T02:05:13;16.90;73.50
5128;DHT22;2582;48.770;9.190;2023-06-14T02:07:38;16.90;74.10
5128;DHT22;2582;48.770;9.190;2023-06-14T02:10:05;16.70;73.90
5128;DHT22;2582;48.770;9.190;2023-06-14T02:12:30;16.70;74.40
5128;DHT22;2582;48.770;9.190;2023-06-14T02:14:56;16.60;74.90
5128;DHT22;2582;48.770;9.190;2023-06-14T02:17:23;16.50;75.90
5128;DHT22;2582;48.770;9.190;2023-06-14T02:19:48;16.50;76.10
5128;DHT22;2582;48.770;9.190;2023-06-14T02:22:15;16.40;76.50
5128;DHT22;2582;48.770;9.190;2023-06-14T02:24:41;16.50;77.00
5128;DHT22;2582;48.770;9.190;2023-06-14T02:27:07;16.40;77.40
5128;DHT22;2582;48.770;9.190;2023-06-14T02:29:35;16.40;78.00
5128;DHT22;2582;48.770;9.190;2023-06-14T02:32:01;16.40;78.30
5128;DHT22;2582;48.770;9.190;2023-06-14T02:34:26;16.30;79.10
5128;DHT22;2582;48.770;9.190;2023-06-14T02:36:52;16.30;79.60
5128;DHT22;2582;48.770;9.190;2023-06-14T02:39:18;16.30;79.90
5128;DHT22;2582;48.770;9.190;2023-06-14T02:41:46;16.40;80.30
5128;DHT22;2582;48.770;9.190;2023-06-14T02:44:13;16.50;80.70
5128;DHT22;2582;48.770;9.190;2023-06-14T02:46:39;16.50;81.00
5128;DHT22;2582;48.770;9.190;2023-06-14T02:49:05;16.40;81.50
5128;DHT22;2582;48.770;9.190;2023-06-14T02:51:30;16.40;81.70
5128;DHT22;2582;48.770;9.190;2023-06-14T02:53:56;16.40;82.10
5128;DHT22;2582;48.770;9.190;2023-06-14T02:56:21;16.30;82.80
5128;DHT22;2582;48.770;9.190;2023-06-14T02:58:48;16.20;83.90
5128;DHT22;2582;48.770;9.190;2023-06-14T03:01:14;16.10;84.60
5128;DHT22;2582;48.770;9.190;2023-06-14T03:03:40;16.00;85.10
5128;DHT22;2582;48.770;9.190;2023-06-14T03:06:05;16.10;85.60
5128;DHT22;2582;48.770;9.190;2023-06-14T03:08:31;16.10;85.70
5128;DHT22;2582;48.770;9.190;2023-06-14T03:10:58;16.20;86.60
5128;DHT22;2582;48.770;9.190;2023-06-14T03:13:24;16.20;86.30
5128;DHT22;2582;48.770;9.190;2023-06-14T03:15:49;16.20;86.90
5128;DHT22;2582;48.770;9.190;2023-06-14T03:18:18;16.10;87.90
5128;DHT22;2582;48.770;9.190;2023-06-14T03:20:44;16.00;87.30
5128;DHT22;2582;48.770;9.190;2023-06-14T03:23:11;15.90;88.10
5128;DHT22;2582;48.770;9.190;2023-06-14T03:25:37;15.90;88.90
5128;DHT22;2582;48.770;9.190;2023-06-14T03:28:04;15.90;88.60
5128;DHT22;2582;48.770;9.190;2023-06-14T03:30:31;15.90;88.80
5128;DHT22;2582;48.770;9.190;2023-06-14T03:32:57;15.90;89.30
5128;DHT22;2582;48.770;9.190;2023-06-14T03:35:23;15.90;89.80
5128;DHT22;2582;48.770;9.190;2023-06-14T03:37:49;15.80;89.50
5128;DHT22;2582;48.770;9.190;2023-06-14T03:40:17;15.70;90.30
5128;DHT22;2582;48.770;9.190;2023-06-14T03:42:43;15.80;90.50
5128;DHT22;2582;48.770;9.190;2023-06-14T03:45:08;15.90;90.70
5128;DHT22;2582;48.770;9.190;2023-06-14T03:47:34;16.00;90.60
5128;DHT22;2582;48.770;9.190;2023-06-14T03:50:04;16.00;90.60
5128;DHT22;2582;48.770;9.190;2023-06-14T03:52:31;15.90;90.70
5128;DHT22;2582;48.770;9.190;2023-06-14T03:54:57;15.90;91.20
5128;DHT22;2582;48.770;9.190;2023-06-14T03:57:23;16.00;91.20
5128;DHT22;2582;48.770;9.190;2023-06-14T03:59:49;15.90;91.30
5128;DHT22;2582;48.770;9.190;2023-06-14T04:02:15;15.80;91.60
5128;DHT22;2582;48.770;9.190;2023-06-14T04:04:42;15.80;91.90
5128;DHT22;2582;48.770;9.190;2023-06-14T04:07:10;15.80;92.30
5128;DHT22;2582;48.770;9.190;2023-06-14T04:09:37;15.90;92.30
5128;DHT22;2582;48.770;9.190;2023-06-14T04:12:03;15.90;92.40
5128;DHT22;2582;48.770;9.190;2023-06-14T04:14:29;15.90;92.60
5128;DHT22;2582;48.770;9.190;2023-06-14T04:16:56;15.80;93.00
5128;DHT22;2582;48.770;9.190;2023-06-14T04:19:21;15.70;92.90
5128;DHT22;2582;48.770;9.190;2023-06-14T04:21:47;15.80;93.10
5128;DHT22;2582;48.770;9.190;2023-06-14T04:24:13;16.00;93.30
5128;DHT22;2582;48.770;9.190;2023-06-14T04:26:44;16.00;93.30
5128;DHT22;2582;48.770;9.190;2023-06-14T04:29:10;16.00;93.60
5128;DHT22;2582;48.770;9.190;2023-06-14T04:31:39;16.10;93.90
5128;DHT22;2582;48.770;9.190;2023-06-14T04:34:05;16.10;94.10
5128;DHT22;2582;48.770;9.190;2023-06-14T04:36:35;16.20;94.30
5128;DHT22;2582;48.770;9.190;2023-06-14T04:39:03;16.30;94.30
5128;DHT22;2582;48.770;9.190;2023-06-14T04:41:29;16.30;94.20
5128;DHT22;2582;48.770;9.190;2023-06-14T04:43:56;16.40;94.40
5128;DHT22;2582;48.770;9.190;2023-06-14T04:46:23;16.40;94.70
5128;DHT22;2582;48.770;9.190;2023-06-14T04:48:49;16.40;95.00
5128;DHT22;2582;48.770;9.190;2023-06-14T04:51:15;16.40;95.00
5128;DHT22;2582;48.770;9.190;2023-06-14T04:53:42;16.50;94.90
5128;DHT22;2582;48.770;9.190;2023-06-14T04:56:09;16.50;95.60
5128;DHT22;2582;48.770;9.190;2023-06-14T04:58:35;16.50;95.40
5128;DHT22;2582;48.770;9.190;2023-06-14T05:01:01;16.60;95.50
5128;DHT22;2582;48.770;9.190;2023-06-14T05:03:27;16.70;95.60
5128;DHT22;2582;48.770;9.190;2023-06-14T05:05:53;16.80;95.50
5128;DHT22;2582;48.770;9.190;2023-06-14T05:08:19;16.90;95.50
5128;DHT22;2582;48.770;9.190;2023-06-14T05:10:45;17.00;95.40
5128;DHT22;2582;48.770;9.190;2023-06-14T05:13:11;17.10;95.60
5128;DHT22;2582;48.770;9.190;2023-06-14T05:15:36;17.20;95.30
5128;DHT22;2582;48.770;9.190;2023-06-14T05:18:02;17.30;95.10
5128;DHT22;2582;48.770;9.190;2023-06-14T05:20:28;17.50;94.80
5128;DHT22;2582;48.770;9.190;2023-06-14T05:22:54;17.70;94.80
5128;DHT22;2582;48.770;9.190;2023-06-14T05:25:20;17.80;94.00
5128;DHT22;2582;48.770;9.190;2023-06-14T05:27:46;17.90;94.10
5128;DHT22;2582;48.770;9.190;2023-06-14T05:30:13;18.10;94.50
5128;DHT22;2582;48.770;9.190;2023-06-14T05:32:39;18.10;94.00
5128;DHT22;2582;48.770;9.190;2023-06-14T05:35:06;18.20;93.30
5128;DHT22;2582;48.770;9.190;2023-06-14T05:37:31;18.30;93.70
5128;DHT22;2582;48.770;9.190;2023-06-14T05:39:57;18.40;93.40
5128;DHT22;2582;48.770;9.190;2023-06-14T05:42:23;18.50;93.10
5128;DHT22;2582;48.770;9.190;2023-06-14T05:44:48;18.50;91.80
5128;DHT22;2582;48.770;9.190;2023-06-14T05:47:14;18.60;92.20
5128;DHT22;2582;48.770;9.190;2023-06-14T05:49:40;18.70;91.00
5128;DHT22;2582;48.770;9.190;2023-06-14T05:52:06;18.80;91.80
5128;DHT22;2582;48.770;9.190;2023-06-14T05:54:32;18.90;90.50
5128;DHT22;2582;48.770;9.190;2023-06-14T05:56:57;18.60;89.30
5128;DHT22;2582;48.770;9.190;2023-06-14T05:59:27;18.70;90.80
5128;DHT22;2582;48.770;9.190;2023-06-14T06:01:53;18.90;90.20
5128;DHT22;2582;48.770;9.190;2023-06-14T06:04:19;19.10;89.30
5128;DHT22;2582;48.770;9.190;2023-06-14T06:06:45;19.00;88.40
5128;DHT22;2582;48.770;9.190;2023-06-14T06:09:12;19.10;88.20
5128;DHT22;2582;48.770;9.190;2023-06-14T06:11:37;19.10;87.20
5128;DHT22;2582;48.770;9.190;2023-06-14T06:14:03;19.20;87.10
5128;DHT22;2582;48.770;9.190;2023-06-14T06:16:28;19.00;85.90
5128;DHT22;2582;48.770;9.190;2023-06-14T06:18:54;19.00;86.00
5128;DHT22;2582;48.770;9.190;2023-06-14T06:21:19;18.70;85.40
5128;DHT22;2582;48.770;9.190;2023-06-14T06:23:45;18.70;86.30
5128;DHT22;2582;48.770;9.190;2023-06-14T06:26:11;18.80;84.30
5128;DHT22;2582;48.770;9.190;2023-06-14T06:28:36;18.60;85.70
5128;DHT22;2582;48.770;9.190;2023-06-14T06:31:02;18.60;86.30
5128;DHT22;2582;48.770;9.190;2023-06-14T06:33:28;18.60;85.20
5128;DHT22;2582;48.770;9.190;2023-06-14T06:35:55;18.80;85.80
5128;DHT22;2582;48.770;9.190;2023-06-14T06:38:20;19.00;84.70
5128;DHT22;2582;48.770;9.190;2023-06-14T06:40:46;19.00;84.70
5128;DHT22;2582;48.770;9.190;2023-06-14T06:43:11;19.20;84.60
5128;DHT22;2582;48.770;9.190;2023-06-14T06:45:42;19.10;84.60
5128;DHT22;2582;48.770;9.190;2023-06-14T06:48:08;19.20;85.10
5128;DHT22;2582;48.770;9.190;2023-06-14T06:50:35;19.10;86.50
5128;DHT22;2582;48.770;9.190;2023-06-14T06:53:01;19.10;85.20
5128;DHT22;2582;48.770;9.190;2023-06-14T06:55:27;19.30;84.80
5128;DHT22;2582;48.770;9.190;2023-06-14T06:57:53;19.20;83.70
5128;DHT22;2582;48.770;9.190;2023-06-14T07:00:19;19.20;82.20
5128;DHT22;2582;48.770;9.190;2023-06-14T07:02:45;19.40;82.80
5128;DHT22;2582;48.770;9.190;2023-06-14T07:05:11;19.50;83.20
5128;DHT22;2582;48.770;9.190;2023-06-14T07:07:36;19.80;81.80
5128;DHT22;2582;48.770;9.190;2023-06-14T07:10:03;20.00;82.10
5128;DHT22;2582;48.770;9.190;2023-06-14T07:12:30;19.90;81.10
5128;DHT22;2582;48.770;9.190;2023-06-14T07:14:57;19.70;81.30
5128;DHT22;2582;48.770;9.190;2023-06-14T07:17:23;20.00;80.80
5128;DHT22;2582;48.770;9.190;2023-06-14T07:19:48;20.10;80.20
5128;DHT22;2582;48.770;9.190;2023-06-14T07:22:14;20.00;80.80
5128;DHT22;2582;48.770;9.190;2023-06-14T07:24:39;19.90;80.80
5128;DHT22;2582;48.770;9.190;2023-06-14T07:27:06;19.80;80.20
5128;DHT22;2582;48.770;9.190;2023-06-14T07:29:31;19.90;80.40
5128;DHT22;2582;48.770;9.190;2023-06-14T07:31:57;19.90;79.90
5128;DHT22;2582;48.770;9.190;2023-06-14T07:34:22;19.60;81.40
5128;DHT22;2582;48.770;9.190;2023-06-14T07:36:48;19.70;81.00
5128;DHT22;2582;48.770;9.190;2023-06-14T07:39:13;19.70;81.20
5128;DHT22;2582;48.770;9.190;2023-06-14T07:41:39;19.80;80.30
5128;DHT22;2582;48.770;9.190;2023-06-14T07:44:05;20.10;80.50
5128;DHT22;2582;48.770;9.190;2023-06-14T07:46:31;20.20;78.60
5128;DHT22;2582;48.770;9.190;2023-06-14T07:48:56;20.20;79.30
5128;DHT22;2582;48.770;9.190;2023-06-14T07:51:22;20.30;77.50
5128;DHT22;2582;48.770;9.190;2023-06-14T07:53:48;20.30;78.10
5128;DHT22;2582;48.770;9.190;2023-06-14T07:56:14;20.20;78.00
5128;DHT22;2582;48.770;9.190;2023-06-14T07:58:40;20.40;77.20
5128;DHT22;2582;48.770;9.190;2023-06-14T08:01:06;20.50;79.40
5128;DHT22;2582;48.770;9.190;2023-06-14T08:03:33;20.60;77.80
5128;DHT22;2582;48.770;9.190;2023-06-14T08:05:59;20.50;77.70
5128;DHT22;2582;48.770;9.190;2023-06-14T08:08:26;20.70;77.90
5128;DHT22;2582;48.770;9.190;2023-06-14T08:10:52;20.80;77.50
5128;DHT22;2582;48.770;9.190;2023-06-14T08:13:17;20.50;77.70
5128;DHT22;2582;48.770;9.190;2023-06-14T08:15:43;20.60;77.80
5128;DHT22;2582;48.770;9.190;2023-06-14T08:18:09;20.40;78.40
5128;DHT22;2582;48.770;9.190;2023-06-14T08:20:35;20.40;79.20
5128;DHT22;2582;48.770;9.190;2023-06-14T08:23:02;20.60;79.20
5128;DHT22;2582;48.770;9.190;2023-06-14T08:25:29;20.60;79.40
5128;DHT22;2582;48.770;9.190;2023-06-14T08:27:55;20.90;79.90
5128;DHT22;2582;48.770;9.190;2023-06-14T08:30:21;21.00;80.10
5128;DHT22;2582;48.770;9.190;2023-06-14T08:32:47;20.90;79.20
5128;DHT22;2582;48.770;9.190;2023-06-14T08:35:13;20.70;79.40
5128;DHT22;2582;48.770;9.190;2023-06-14T08:37:40;20.90;80.50
5128;DHT22;2582;48.770;9.190;2023-06-14T08:40:17;21.20;79.90
5128;DHT22;2582;48.770;9.190;2023-06-14T08:42:43;21.00;80.00
5128;DHT22;2582;48.770;9.190;2023-06-14T08:45:09;21.20;80.10
5128;DHT22;2582;48.770;9.190;2023-06-14T08:47:35;21.30;79.80
5128;DHT22;2582;48.770;9.190;2023-06-14T08:50:03;21.60;79.40
5128;DHT22;2582;48.770;9.190;2023-06-14T08:52:33;21.40;79.00
5128;DHT22;2582;48.770;9.190;2023-06-14T08:55:06;21.50;77.90
5128;DHT22;2582;48.770;9.190;2023-06-14T08:57:33;21.60;77.80
5128;DHT22;2582;48.770;9.190;2023-06-14T09:00:01;21.70;78.70
5128;DHT22;2582;48.770;9.190;2023-06-14T09:02:30;21.70;78.10
5128;DHT22;2582;48.770;9.190;2023-06-14T09:04:56;21.80;77.10
5128;DHT22;2582;48.770;9.190;2023-06-14T09:07:24;21.90;75.80
5128;DHT22;2582;48.770;9.190;2023-06-14T09:10:06;22.20;75.30
5128;DHT22;2582;48.770;9.190;2023-06-14T09:12:32;22.30;75.30
5128;DHT22;2582;48.770;9.190;2023-06-14T09:14:58;22.40;74.80
5128;DHT22;2582;48.770;9.190;2023-06-14T09:17:23;22.40;75.70
5128;DHT22;2582;48.770;9.190;2023-06-14T09:19:49;22.70;74.00
5128;DHT22;2582;48.770;9.190;2023-06-14T09:22:16;22.50;73.50
5128;DHT22;2582;48.770;9.190;2023-06-14T09:24:42;22.40;74.30
5128;DHT22;2582;48.770;9.190;2023-06-14T09:27:08;22.50;74.60
5128;DHT22;2582;48.770;9.190;2023-06-14T09:29:33;22.70;72.80
5128;DHT22;2582;48.770;9.190;2023-06-14T09:31:59;23.10;71.90
5128;DHT22;2582;48.770;9.190;2023-06-14T09:34:24;23.10;70.80
5128;DHT22;2582;48.770;9.190;2023-06-14T09:36:50;23.10;71.30
5128;DHT22;2582;48.770;9.190;2023-06-14T09:39:17;23.20;72.40
5128;DHT22;2582;48.770;9.190;2023-06-14T09:41:43;23.30;70.80
5128;DHT22;2582;48.770;9.190;2023-06-14T09:44:10;23.20;70.00
5128;DHT22;2582;48.770;9.190;2023-06-14T09:46:37;23.30;70.60
5128;DHT22;2582;48.770;9.190;2023-06-14T09:49:04;23.20;70.50
5128;DHT22;2582;48.770;9.190;2023-06-14T09:51:30;23.50;71.50
5128;DHT22;2582;48.770;9.190;2023-06-14T09:54:01;23.60;68.50
5128;DHT22;2582;48.770;9.190;2023-06-14T09:56:28;23.70;66.10
5128;DHT22;2582;48.770;9.190;2023-06-14T09:58:56;23.70;64.30
5128;DHT22;2582;48.770;9.190;2023-06-14T10:01:26;24.00;64.70
5128;DHT22;2582;48.770;9.190;2023-06-14T10:04:02;24.40;65.10
5128;DHT22;2582;48.770;9.190;2023-06-14T10:06:29;24.50;62.60
5128;DHT22;2582;48.770;9.190;2023-06-14T10:08:57;24.30;65.30
5128;DHT22;2582;48.770;9.190;2023-06-14T10:11:25;24.00;66.20
5128;DHT22;2582;48.770;9.190;2023-06-14T10:13:51;23.80;66.60
5128;DHT22;2582;48.770;9.190;2023-06-14T10:21:46;23.70;63.40
5128;DHT22;2582;48.770;9.190;2023-06-14T10:24:17;24.00;60.70
5128;DHT22;2582;48.770;9.190;2023-06-14T10:26:52;24.20;60.90
5128;DHT22;2582;48.770;9.190;2023-06-14T10:29:18;24.60;59.90
5128;DHT22;2582;48.770;9.190;2023-06-14T10:31:50;25.00;61.00
5128;DHT22;2582;48.770;9.190;2023-06-14T10:34:27;25.00;60.10
5128;DHT22;2582;48.770;9.190;2023-06-14T10:37:12;24.70;60.20
5128;DHT22;2582;48.770;9.190;2023-06-14T10:39:42;25.20;61.80
5128;DHT22;2582;48.770;9.190;2023-06-14T10:42:08;25.00;62.30
5128;DHT22;2582;48.770;9.190;2023-06-14T10:44:51;24.80;62.50
5128;DHT22;2582;48.770;9.190;2023-06-14T10:49:56;25.10;63.80
5128;DHT22;2582;48.770;9.190;2023-06-14T10:52:27;25.40;61.10
5128;DHT22;2582;48.770;9.190;2023-06-14T10:57:21;25.10;60.60
5128;DHT22;2582;48.770;9.190;2023-06-14T10:59:47;25.00;60.60
5128;DHT22;2582;48.770;9.190;2023-06-14T11:04:47;25.00;60.10
5128;DHT22;2582;48.770;9.190;2023-06-14T11:07:41;25.10;59.80
5128;DHT22;2582;48.770;9.190;2023-06-14T11:12:41;24.90;59.90
5128;DHT22;2582;48.770;9.190;2023-06-14T11:15:10;24.60;59.40
5128;DHT22;2582;48.770;9.190;2023-06-14T11:17:36;25.10;60.50
5128;DHT22;2582;48.770;9.190;2023-06-14T11:20:12;25.70;59.30
5128;DHT22;2582;48.770;9.190;2023-06-14T11:22:44;26.10;57.00
5128;DHT22;2582;48.770;9.190;2023-06-14T11:25:13;26.20;56.10
5128;DHT22;2582;48.770;9.190;2023-06-14T11:27:39;26.00;54.80
5128;DHT22;2582;48.770;9.190;2023-06-14T11:30:07;26.00;55.50
5128;DHT22;2582;48.770;9.190;2023-06-14T11:32:33;26.90;54.90
5128;DHT22;2582;48.770;9.190;2023-06-14T11:34:58;27.60;52.00
5128;DHT22;2582;48.770;9.190;2023-06-14T11:37:26;28.30;51.30
5128;DHT22;2582;48.770;9.190;2023-06-14T11:39:56;29.20;49.70
5128;DHT22;2582;48.770;9.190;2023-06-14T11:42:22;29.00;49.80
5128;DHT22;2582;48.770;9.190;2023-06-14T11:44:49;30.00;48.00
5128;DHT22;2582;48.770;9.190;2023-06-14T11:47:15;30.60;45.40
5128;DHT22;2582;48.770;9.190;2023-06-14T11:49:40;30.80;44.10
5128;DHT22;2582;48.770;9.190;2023-06-14T11:52:07;31.80;43.20
5128;DHT22;2582;48.770;9.190;2023-06-14T11:54:33;29.90;43.90
5128;DHT22;2582;48.770;9.190;2023-06-14T11:56:59;30.70;43.60
5128;DHT22;2582;48.770;9.190;2023-06-14T11:59:25;30.80;43.70
5128;DHT22;2582;48.770;9.190;2023-06-14T12:01:53;31.30;43.40
5128;DHT22;2582;48.770;9.190;2023-06-14T12:04:40;31.80;42.50
5128;DHT22;2582;48.770;9.190;2023-06-14T12:07:13;32.50;41.10
5128;DHT22;2582;48.770;9.190;2023-06-14T12:12:26;33.60;39.60
5128;DHT22;2582;48.770;9.190;2023-06-14T12:14:52;33.40;38.90
5128;DHT22;2582;48.770;9.190;2023-06-14T12:17:19;35.60;37.90
5128;DHT22;2582;48.770;9.190;2023-06-14T12:19:46;33.60;38.10
5128;DHT22;2582;48.770;9.190;2023-06-14T12:22:16;33.80;37.80
5128;DHT22;2582;48.770;9.190;2023-06-14T12:24:45;32.40;39.80
5128;DHT22;2582;48.770;9.190;2023-06-14T12:27:12;29.90;41.40
5128;DHT22;2582;48.770;9.190;2023-06-14T12:29:41;29.50;43.60
5128;DHT22;2582;48.770;9.190;2023-06-14T12:32:11;28.90;43.30
5128;DHT22;2582;48.770;9.190;2023-06-14T12:34:36;27.30;45.90
5128;DHT22;2582;48.770;9.190;2023-06-14T12:37:02;27.20;45.90
5128;DHT22;2582;48.770;9.190;2023-06-14T12:39:29;27.40;45.60
5128;DHT22;2582;48.770;9.190;2023-06-14T12:41:57;28.50;44.20
5128;DHT22;2582;48.770;9.190;2023-06-14T12:44:22;28.80;43.50
5128;DHT22;2582;48.770;9.190;2023-06-14T12:46:48;28.10;44.30
5128;DHT22;2582;48.770;9.190;2023-06-14T12:49:16;28.60;43.90
5128;DHT22;2582;48.770;9.190;2023-06-14T12:51:42;29.20;43.60
5128;DHT22;2582;48.770;9.190;2023-06-14T12:54:07;30.50;43.40
5128;DHT22;2582;48.770;9.190;2023-06-14T12:56:33;31.40;42.40
5128;DHT22;2582;48.770;9.190;2023-06-14T12:58:59;31.70;41.10
5128;DHT22;2582;48.770;9.190;2023-06-14T13:01:25;30.00;43.10
5128;DHT22;2582;48.770;9.190;2023-06-14T13:03:50;31.30;42.40
5128;DHT22;2582;48.770;9.190;2023-06-14T13:06:17;33.00;40.70
5128;DHT22;2582;48.770;9.190;2023-06-14T13:08:42;33.70;38.70
5128;DHT22;2582;48.770;9.190;2023-06-14T13:11:08;33.10;39.00
5128;DHT22;2582;48.770;9.190;2023-06-14T13:13:34;33.20;38.40
5128;DHT22;2582;48.770;9.190;2023-06-14T13:15:59;33.70;37.30
5128;DHT22;2582;48.770;9.190;2023-06-14T13:18:25;34.30;36.80
5128;DHT22;2582;48.770;9.190;2023-06-14T13:20:51;34.30;36.70
5128;DHT22;2582;48.770;9.190;2023-06-14T13:23:17;32.30;38.00
5128;DHT22;2582;48.770;9.190;2023-06-14T13:25:43;30.90;40.10
5128;DHT22;2582;48.770;9.190;2023-06-14T13:28:08;30.60;41.20
5128;DHT22;2582;48.770;9.190;2023-06-14T13:30:34;30.90;40.40
5128;DHT22;2582;48.770;9.190;2023-06-14T13:33:00;31.90;40.80
5128;DHT22;2582;48.770;9.190;2023-06-14T13:35:26;32.10;39.10
5128;DHT22;2582;48.770;9.190;2023-06-14T13:37:52;32.40;40.00
5128;DHT22;2582;48.770;9.190;2023-06-14T13:40:17;33.70;38.60
5128;DHT22;2582;48.770;9.190;2023-06-14T13:42:43;32.90;38.80
5128;DHT22;2582;48.770;9.190;2023-06-14T13:45:10;32.20;39.90
5128;DHT22;2582;48.770;9.190;2023-06-14T13:47:36;32.50;39.80
5128;DHT22;2582;48.770;9.190;2023-06-14T13:50:03;31.90;39.60
5128;DHT22;2582;48.770;9.190;2023-06-14T13:52:29;33.30;38.50
5128;DHT22;2582;48.770;9.190;2023-06-14T13:54:54;33.70;37.80
5128;DHT22;2582;48.770;9.190;2023-06-14T13:57:20;32.50;39.10
5128;DHT22;2582;48.770;9.190;2023-06-14T13:59:45;32.60;39.40
5128;DHT22;2582;48.770;9.190;2023-06-14T14:02:12;30.40;40.80
5128;DHT22;2582;48.770;9.190;2023-06-14T14:04:39;30.40;41.90
5128;DHT22;2582;48.770;9.190;2023-06-14T14:07:05;29.50;42.50
5128;DHT22;2582;48.770;9.190;2023-06-14T14:09:32;28.50;44.20
5128;DHT22;2582;48.770;9.190;2023-06-14T14:11:58;28.70;44.50
5128;DHT22;2582;48.770;9.190;2023-06-14T14:14:24;30.30;42.60
5128;DHT22;2582;48.770;9.190;2023-06-14T14:16:50;29.90;42.20
5128;DHT22;2582;48.770;9.190;2023-06-14T14:19:22;29.50;42.70
5128;DHT22;2582;48.770;9.190;2023-06-14T14:21:48;30.20;42.70
5128;DHT22;2582;48.770;9.190;2023-06-14T14:24:13;29.80;43.20
5128;DHT22;2582;48.770;9.190;2023-06-14T14:26:39;29.90;43.60
5128;DHT22;2582;48.770;9.190;2023-06-14T14:29:05;31.10;41.80
5128;DHT22;2582;48.770;9.190;2023-06-14T14:31:31;32.70;40.20
5128;DHT22;2582;48.770;9.190;2023-06-14T14:33:56;32.80;40.10
5128;DHT22;2582;48.770;9.190;2023-06-14T14:36:22;32.20;40.90
5128;DHT22;2582;48.770;9.190;2023-06-14T14:38:48;32.10;41.40
5128;DHT22;2582;48.770;9.190;2023-06-14T14:41:14;32.20;40.80
5128;DHT22;2582;48.770;9.190;2023-06-14T14:43:39;32.00;40.50
5128;DHT22;2582;48.770;9.190;2023-06-14T14:46:05;32.90;39.90
5128;DHT22;2582;48.770;9.190;2023-06-14T14:48:31;33.00;39.60
5128;DHT22;2582;48.770;9.190;2023-06-14T14:50:56;32.90;39.20
5128;DHT22;2582;48.770;9.190;2023-06-14T14:53:22;33.50;39.10
5128;DHT22;2582;48.770;9.190;2023-06-14T14:55:47;34.00;38.00
5128;DHT22;2582;48.770;9.190;2023-06-14T14:58:13;34.20;37.50
5128;DHT22;2582;48.770;9.190;2023-06-14T15:00:46;34.10;37.50
5128;DHT22;2582;48.770;9.190;2023-06-14T15:03:12;34.90;37.00
5128;DHT22;2582;48.770;9.190;2023-06-14T15:05:37;33.70;37.10
5128;DHT22;2582;48.770;9.190;2023-06-14T15:08:04;33.10;38.50
5128;DHT22;2582;48.770;9.190;2023-06-14T15:10:30;32.40;39.00
5128;DHT22;2582;48.770;9.190;2023-06-14T15:12:56;33.80;38.10
5128;DHT22;2582;48.770;9.190;2023-06-14T15:15:22;34.80;36.90
5128;DHT22;2582;48.770;9.190;2023-06-14T15:17:48;34.70;36.10
5128;DHT22;2582;48.770;9.190;2023-06-14T15:20:13;33.50;38.00
5128;DHT22;2582;48.770;9.190;2023-06-14T15:22:40;32.30;39.60
5128;DHT22;2582;48.770;9.190;2023-06-14T15:25:06;32.20;39.90
5128;DHT22;2582;48.770;9.190;2023-06-14T15:27:32;32.30;40.60
5128;DHT22;2582;48.770;9.190;2023-06-14T15:29:57;33.40;38.60
5128;DHT22;2582;48.770;9.190;2023-06-14T15:32:23;33.70;38.10
5128;DHT22;2582;48.770;9.190;2023-06-14T15:34:49;32.50;39.70
5128;DHT22;2582;48.770;9.190;2023-06-14T15:37:14;32.90;38.50
5128;DHT22;2582;48.770;9.190;2023-06-14T15:39:40;32.40;39.30
5128;DHT22;2582;48.770;9.190;2023-06-14T15:42:06;33.00;39.10
5128;DHT22;2582;48.770;9.190;2023-06-14T15:44:33;33.00;39.30
5128;DHT22;2582;48.770;9.190;2023-06-14T15:46:58;32.70;38.90
5128;DHT22;2582;48.770;9.190;2023-06-14T15:49:24;32.60;39.30
5128;DHT22;2582;48.770;9.190;2023-06-14T15:51:49;32.50;39.60
5128;DHT22;2582;48.770;9.190;2023-06-14T15:54:15;32.20;39.70
5128;DHT22;2582;48.770;9.190;2023-06-14T15:56:40;31.30;40.80
5128;DHT22;2582;48.770;9.190;2023-06-14T15:59:06;31.60;40.20
5128;DHT22;2582;48.770;9.190;2023-06-14T16:01:32;31.10;40.80
5128;DHT22;2582;48.770;9.190;2023-06-14T16:03:58;29.90;41.80
5128;DHT22;2582;48.770;9.190;2023-06-14T16:06:24;29.50;43.60
5128;DHT22;2582;48.770;9.190;2023-06-14T16:08:49;29.40;42.80
5128;DHT22;2582;48.770;9.190;2023-06-14T16:11:17;29.60;44.00
5128;DHT22;2582;48.770;9.190;2023-06-14T16:13:43;30.50;41.50
5128;DHT22;2582;48.770;9.190;2023-06-14T16:16:11;31.20;40.40
5128;DHT22;2582;48.770;9.190;2023-06-14T16:18:37;31.60;39.60
5128;DHT22;2582;48.770;9.190;2023-06-14T16:21:03;32.10;39.60